Las horas y fechas están en horario UTC
Sumar 1 hora en el horario de Invierno y 2 horas en el de Verano

Informes METAR cercanos

 

LEZL - Sevilla (civ/Mil, Spain
Distance from station: NNE 24km
Actualización: 14/12/2019 04:00
Muy nuboso
Muy nuboso
 Viento del ONO
Viento: ONO 6 km/h
Temperatura: 14°C
Rocío: 12°C
Humedad: 88%
Barómetro: 1022 hPa
Clouds: Muy nuboso
Visibility: 10 km
Cloud details: Muy nuboso 1219 m
2019/12/14 03:00 LEZL 140300Z 29003KT 9999 BKN040 14/12 Q1022 NOSIG
LEMO - Moron (sp-Usafb), Spain
Distance from station: E 38km
Actualización: 14/12/2019 04:00
Muy nuboso
Muy nuboso
 Viento del SSO
Viento: SSO 6 km/h
Temperatura: 13°C
Rocío: 11°C
Humedad: 88%
Barómetro: 1022 hPa
Clouds: Muy nuboso
Visibility: 10 km
Cloud details: Muy nuboso 1189 m
2019/12/14 03:00 LEMO 140300Z 20003KT 9999 BKN039 13/11 Q1022 NOSIG
LEJR - Jerez (civ/Mil), Spain
Distance from station: S 53km
Actualización: 14/12/2019 04:00
Cubierto
Cubierto
 Viento del ONO
Viento: ONO 6 km/h
Temperatura: 12°C
Rocío: 11°C
Humedad: 94%
Barómetro: 1023 hPa
Clouds: Cubierto
Visibility: 10 km
Cloud details: Cubierto 1280 m
2019/12/14 03:00 LEJR 140300Z AUTO 30003KT 270V340 9999 OVC042 12/11 Q1023
 
LERT - Rota Naval Stati, Spain
Distance from station: SSO 71km
Actualización: 14/12/2019 04:00
Parcialmente nuboso
Parcialmente nuboso
 Viento del O
Viento: O 11 km/h
Temperatura: 13°C
Rocío: 12°C
Humedad: 94%
Barómetro: 1023 hPa
Clouds: Parcialmente nuboso
Visibility: 10 km
Cloud details: Few Clouds 457 m
Parcialmente nuboso 1280 m
2019/12/14 03:00 LERT 140300Z 28006KT 9999 FEW015 SCT042 13/12 Q1023 NOSIG
LEBA - Cordoba Airport, Spain
Distance from station: ENE 128km
Actualización: 14/12/2019 04:00
Cubierto
Cubierto
 Viento del O
Viento: O 7 km/h
Temperatura: 12°C
Rocío: 11°C
Humedad: 94%
Barómetro: 1022 hPa
Clouds: Cubierto
Visibility: 10 km
Cloud details: Cubierto 1250 m
2019/12/14 03:00 LEBA 140300Z AUTO 28004KT 9999 OVC041 12/11 Q1022
LXGB - Gibraltar (civ/M, Gibraltar
Distance from station: SSE 137km
Actualización: 14/12/2019 03:50
Despejado
Despejado
 Viento del O
Viento: O 30 km/h
Temperatura: 15°C
Rocío: 12°C
Humedad: 82%
Barómetro: 1022 hPa
Clouds: Despejado
Visibility: 10 km
2019/12/14 02:50 LXGB 140250Z AUTO 27016KT 9999 // NCD 15/12 Q1022
 
LEMG - Malaga (civ/Mil), Spain
Distance from station: ESE 150km
Actualización: 14/12/2019 04:00
Few Clouds
Few Clouds
 Viento del ONO
Viento: ONO 31 km/h
Temperatura: 16°C
Rocío: 9°C
Humedad: 63%
Barómetro: 1020 hPa
Clouds: Few Clouds
Visibility: 10 km
Cloud details: Few Clouds 1219 m
2019/12/14 03:00 LEMG 140300Z 29017KT 9999 FEW040 16/09 Q1020 NOSIG
GMTT - Tangier/Boukhalf, Morocco
Distance from station: S 169km
Actualización: 14/12/2019 04:00
Muy nuboso
Muy nuboso
 Viento del S
Viento: S 6 km/h
Temperatura: 15°C
Rocío: 13°C
Humedad: 88%
Barómetro: 1023 hPa
Clouds: Muy nuboso
Visibility: 10 km
Cloud details: Parcialmente nuboso 457 m
Muy nuboso 762 m
2019/12/14 03:00 GMTT 140300Z 19003KT 150V230 9999 SCT015 BKN025 15/13 Q1023 NOSIG
LPFR - Faro, Portugal
Distance from station: O 172km
Actualización: 14/12/2019 04:00
Muy nuboso
Muy nuboso
 Viento del O
Viento: O 9 km/h
Temperatura: 14°C
Rocío: 12°C
Humedad: 88%
Barómetro: 1024 hPa
Clouds: Muy nuboso
Visibility: 10 km
Cloud details: Few Clouds 549 m
Muy nuboso 914 m
2019/12/14 03:00 LPFR 140300Z 28005KT 9999 FEW018 BKN030 14/12 Q1024
 
LPBJ - Beja (por/Ger-Af, Portugal
Distance from station: ONO 192km
Actualización: 14/12/2019 04:00
Muy nuboso
Muy nuboso
 Viento del ONO
Viento: ONO 7 km/h
Temperatura: 11°C
Rocío: 10°C
Humedad: 94%
Barómetro: 1023 hPa
Clouds: Muy nuboso
Visibility: 10 km
Cloud details: Few Clouds 457 m
Muy nuboso 975 m
2019/12/14 03:00 LPBJ 140300Z 29004KT 9999 FEW015 BKN032 11/10 Q1023
LEBZ - Talavera Ab/Bada, Spain
Distance from station: NNO 194km
Actualización: 13/12/2019 21:00
NOT Current
Muy nuboso
Muy nuboso
 Viento del O
Viento: O 19 km/h
Temperatura: 14°C
Rocío: 12°C
Humedad: 88%
Barómetro: 1023 hPa
Clouds: Muy nuboso
Visibility: 10 km
Cloud details: Parcialmente nuboso 610 m
Muy nuboso 1402 m
2019/12/13 20:00 LEBZ 132000Z 26010KT 9999 SCT020 BKN046 14/12 Q1023
LEMD - Madrid/Barajas, Spain
Distance from station: NE 415km
Actualización: 14/12/2019 04:00
Few Clouds
Few Clouds
 Viento del S
Viento: S 13 km/h
Temperatura: 8°C
Wind Chill: 6°C
Rocío: 7°C
Humedad: 93%
Barómetro: 1018 hPa
Clouds: Few Clouds
Visibility: 10 km
Cloud details: Few Clouds 549 m
2019/12/14 03:00 LEMD 140300Z 18007KT 9999 FEW018 08/07 Q1018 NOSIG